createdAt,value
2019-03-28T00:01:58.616Z,8.60
2019-03-28T00:04:27.133Z,8.60
2019-03-28T00:06:55.577Z,8.60
2019-03-28T00:09:24.437Z,8.60
2019-03-28T00:11:52.900Z,8.60
2019-03-28T00:14:21.356Z,8.60
2019-03-28T00:16:49.880Z,8.60
2019-03-28T00:19:18.369Z,8.60
2019-03-28T00:21:47.214Z,8.60
2019-03-28T00:24:17.364Z,8.50
2019-03-28T00:26:45.842Z,8.60
2019-03-28T00:29:14.297Z,8.60
2019-03-28T00:31:43.180Z,8.60
2019-03-28T00:34:11.625Z,8.60
2019-03-28T00:36:40.075Z,8.60
2019-03-28T00:39:08.570Z,8.60
2019-03-28T00:41:37.066Z,8.60
2019-03-28T00:44:05.597Z,8.60
2019-03-28T00:46:34.283Z,8.60
2019-03-28T00:49:02.730Z,8.60
2019-03-28T00:51:31.177Z,8.60
2019-03-28T00:53:59.661Z,8.60
2019-03-28T00:56:28.127Z,8.60
2019-03-28T00:58:56.714Z,8.60
2019-03-28T01:01:25.162Z,8.60
2019-03-28T01:03:53.613Z,8.70
2019-03-28T01:06:22.132Z,8.60
2019-03-28T01:08:50.595Z,8.60
2019-03-28T01:11:19.049Z,8.60
2019-03-28T01:13:47.614Z,8.70
2019-03-28T01:16:16.133Z,8.60
2019-03-28T01:18:45.192Z,8.60
2019-03-28T01:21:13.846Z,8.60
2019-03-28T01:23:42.495Z,8.70
2019-03-28T01:26:11.020Z,8.70
2019-03-28T01:28:39.472Z,8.70
2019-03-28T01:31:08.042Z,8.70
2019-03-28T01:33:36.496Z,8.70
2019-03-28T01:36:04.985Z,8.70
2019-03-28T01:38:33.478Z,8.70
2019-03-28T01:41:01.950Z,8.70
2019-03-28T01:43:30.530Z,8.70
2019-03-28T01:45:59.360Z,8.80
2019-03-28T01:48:27.985Z,8.80
2019-03-28T01:50:56.500Z,8.80
2019-03-28T01:53:24.945Z,8.80
2019-03-28T01:55:53.393Z,8.80
2019-03-28T01:58:21.901Z,8.70
2019-03-28T02:00:50.405Z,8.80
2019-03-28T02:03:18.869Z,8.80
2019-03-28T02:05:47.381Z,8.80
2019-03-28T02:08:15.840Z,8.70
2019-03-28T02:10:44.300Z,8.80
2019-03-28T02:13:12.812Z,8.80
2019-03-28T02:16:05.210Z,8.70
2019-03-28T02:18:34.124Z,8.70
2019-03-28T02:21:02.567Z,8.80
2019-03-28T02:23:31.009Z,8.80
2019-03-28T02:25:59.693Z,8.70
2019-03-28T02:28:28.138Z,8.70
2019-03-28T02:30:56.599Z,8.70
2019-03-28T02:33:25.574Z,8.70
2019-03-28T02:35:54.244Z,8.70
2019-03-28T02:38:22.760Z,8.70
2019-03-28T02:40:51.281Z,8.80
2019-03-28T02:43:19.969Z,8.70
2019-03-28T02:45:48.683Z,8.70
2019-03-28T02:48:17.136Z,8.70
2019-03-28T02:50:45.617Z,8.70
2019-03-28T02:53:14.101Z,8.70
2019-03-28T02:55:42.556Z,8.70
2019-03-28T02:58:11.200Z,8.70
2019-03-28T03:00:39.778Z,8.80
2019-03-28T03:03:08.219Z,8.80
2019-03-28T03:05:36.723Z,8.80
2019-03-28T03:08:05.170Z,8.80
2019-03-28T03:10:33.612Z,8.70
2019-03-28T03:13:02.132Z,8.70
2019-03-28T03:15:30.650Z,8.70
2019-03-28T03:17:59.102Z,8.70
2019-03-28T03:20:27.649Z,8.70
2019-03-28T03:22:56.109Z,8.70
2019-03-28T03:25:24.653Z,8.70
2019-03-28T03:27:58.380Z,8.70
2019-03-28T03:30:23.280Z,8.70
2019-03-28T03:32:51.842Z,8.70
2019-03-28T03:35:20.362Z,8.70
2019-03-28T03:37:48.838Z,8.60
2019-03-28T03:40:17.349Z,8.70
2019-03-28T03:42:45.834Z,8.80
2019-03-28T03:45:14.620Z,8.70
2019-03-28T03:47:43.071Z,8.70
2019-03-28T03:50:14.643Z,8.70
2019-03-28T03:52:43.149Z,8.70
2019-03-28T03:55:11.637Z,8.70
2019-03-28T03:57:40.132Z,8.60
2019-03-28T04:00:09.018Z,8.60
2019-03-28T04:02:37.529Z,8.70
2019-03-28T04:05:06.940Z,8.70
2019-03-28T04:07:35.457Z,8.70
2019-03-28T04:10:05.291Z,8.70
2019-03-28T04:12:33.739Z,8.70
2019-03-28T04:15:02.257Z,8.70
2019-03-28T04:17:30.729Z,8.70
2019-03-28T04:19:59.174Z,8.70
2019-03-28T04:22:27.624Z,8.70
2019-03-28T04:24:56.105Z,8.70
2019-03-28T04:27:24.554Z,8.70
2019-03-28T04:29:53.270Z,8.70
2019-03-28T04:32:21.708Z,8.70
2019-03-28T04:34:50.159Z,8.70
2019-03-28T04:37:18.651Z,8.70
2019-03-28T04:39:47.096Z,8.60
2019-03-28T04:42:15.544Z,8.70
2019-03-28T04:44:44.030Z,8.70
2019-03-28T04:47:12.514Z,8.70
2019-03-28T04:49:40.996Z,8.70
2019-03-28T04:52:09.446Z,8.70
2019-03-28T04:54:38.236Z,8.70
2019-03-28T04:57:06.749Z,8.60
2019-03-28T04:59:35.240Z,8.70
2019-03-28T05:02:05.019Z,8.70
2019-03-28T05:04:33.884Z,8.70
2019-03-28T05:07:02.361Z,8.70
2019-03-28T05:09:30.857Z,8.70
2019-03-28T05:11:59.463Z,8.70
2019-03-28T05:14:28.030Z,8.70
2019-03-28T05:16:56.538Z,8.70
2019-03-28T05:19:24.983Z,8.70
2019-03-28T05:21:53.422Z,8.70
2019-03-28T05:24:21.930Z,8.70
2019-03-28T05:26:50.852Z,8.70
2019-03-28T05:29:19.362Z,8.70
2019-03-28T05:31:47.862Z,8.70
2019-03-28T05:34:16.310Z,8.70
2019-03-28T05:36:44.824Z,8.70
2019-03-28T05:39:13.308Z,8.70
2019-03-28T05:41:41.760Z,8.70
2019-03-28T05:44:10.264Z,8.70
2019-03-28T05:46:38.706Z,8.80
2019-03-28T05:49:07.153Z,8.70
2019-03-28T05:51:35.655Z,8.70
2019-03-28T05:54:04.098Z,8.70
2019-03-28T05:56:32.577Z,8.80
2019-03-28T05:59:10.759Z,8.80
2019-03-28T06:01:32.313Z,8.80
2019-03-28T06:04:20.349Z,8.80
2019-03-28T06:06:48.850Z,8.80
2019-03-28T06:09:17.292Z,8.70
2019-03-28T06:11:45.740Z,8.80
2019-03-28T06:14:14.246Z,8.80
2019-03-28T06:16:42.697Z,8.80
2019-03-28T06:19:11.132Z,8.80
2019-03-28T06:21:39.937Z,8.80
2019-03-28T06:24:08.493Z,8.80
2019-03-28T06:26:36.947Z,8.90
2019-03-28T06:29:08.466Z,8.90
2019-03-28T06:31:36.291Z,8.90
2019-03-28T06:34:04.949Z,8.90
2019-03-28T06:36:33.427Z,8.90
2019-03-28T06:39:01.873Z,8.90
2019-03-28T06:41:30.378Z,8.90
2019-03-28T06:43:58.968Z,8.90
2019-03-28T06:46:28.000Z,9.00
2019-03-28T06:48:56.588Z,8.90
2019-03-28T06:51:25.107Z,8.90
2019-03-28T06:53:53.545Z,9.00
2019-03-28T06:56:25.266Z,9.00
2019-03-28T06:58:51.647Z,9.00
2019-03-28T07:01:20.203Z,9.10
2019-03-28T07:03:48.737Z,9.10
2019-03-28T07:06:17.245Z,9.10
2019-03-28T07:08:45.701Z,9.10
2019-03-28T07:11:14.198Z,9.20
2019-03-28T07:13:42.645Z,9.20
2019-03-28T07:16:11.092Z,9.30
2019-03-28T07:18:39.576Z,9.20
2019-03-28T07:21:08.027Z,9.20
2019-03-28T07:23:36.517Z,9.20
2019-03-28T07:26:04.960Z,9.30
2019-03-28T07:28:33.619Z,9.30
2019-03-28T07:31:02.362Z,9.30
2019-03-28T07:33:31.063Z,9.30
2019-03-28T07:35:59.615Z,9.40
2019-03-28T07:38:28.057Z,9.50
2019-03-28T07:40:56.503Z,9.50
2019-03-28T07:43:25.274Z,9.50
2019-03-28T07:45:54.009Z,9.60
2019-03-28T07:48:22.520Z,9.60
2019-03-28T07:50:50.973Z,9.50
2019-03-28T07:53:19.943Z,9.60
2019-03-28T07:55:49.228Z,9.60
2019-03-28T07:58:17.673Z,9.70
2019-03-28T08:00:46.113Z,9.70
2019-03-28T08:03:14.589Z,9.80
2019-03-28T08:05:43.037Z,9.70
2019-03-28T08:08:11.550Z,9.70
2019-03-28T08:10:39.984Z,9.80
2019-03-28T08:13:08.439Z,9.80
2019-03-28T08:15:37.016Z,9.80
2019-03-28T08:18:05.470Z,9.80
2019-03-28T08:20:33.917Z,9.80
2019-03-28T08:23:02.615Z,9.80
2019-03-28T08:25:31.063Z,9.80
2019-03-28T08:27:59.520Z,9.90
2019-03-28T08:30:38.623Z,10.00
2019-03-28T08:33:07.821Z,10.00
2019-03-28T08:35:38.008Z,10.10
2019-03-28T08:38:10.081Z,10.10
2019-03-28T08:40:41.867Z,10.10
2019-03-28T08:43:10.622Z,10.10
2019-03-28T08:45:39.071Z,10.10
2019-03-28T08:48:07.858Z,10.20
2019-03-28T08:50:36.405Z,10.30
2019-03-28T08:53:05.085Z,10.40
2019-03-28T08:55:33.583Z,10.40
2019-03-28T08:58:02.105Z,10.50
2019-03-28T09:00:35.180Z,10.40
2019-03-28T09:03:01.169Z,10.40
2019-03-28T09:05:29.614Z,10.40
2019-03-28T09:07:58.065Z,10.40
2019-03-28T09:10:26.562Z,10.40
2019-03-28T09:12:55.017Z,10.40
2019-03-28T09:15:23.458Z,10.40
2019-03-28T09:17:51.947Z,10.40
2019-03-28T09:20:20.697Z,10.50
2019-03-28T09:22:49.189Z,10.50
2019-03-28T09:25:17.625Z,10.50
2019-03-28T09:27:46.361Z,10.50
2019-03-28T09:30:16.614Z,10.60
2019-03-28T09:32:45.129Z,10.60
2019-03-28T09:35:16.729Z,10.60
2019-03-28T09:37:45.180Z,10.80
2019-03-28T09:40:13.788Z,10.80
2019-03-28T09:42:42.261Z,10.80
2019-03-28T09:45:10.977Z,10.80
2019-03-28T09:47:39.660Z,10.80
2019-03-28T09:50:08.540Z,10.80
2019-03-28T09:52:36.979Z,10.80
2019-03-28T09:55:06.892Z,10.80
2019-03-28T09:57:35.346Z,10.90
2019-03-28T10:00:06.634Z,10.90
2019-03-28T10:02:35.110Z,10.80
2019-03-28T10:05:08.630Z,10.80
2019-03-28T10:07:38.612Z,10.70
2019-03-28T10:10:09.309Z,10.60
2019-03-28T10:12:37.963Z,10.70
2019-03-28T10:15:07.383Z,10.80
2019-03-28T10:17:35.825Z,10.80
2019-03-28T10:20:06.070Z,10.90
2019-03-28T10:22:34.521Z,10.90
2019-03-28T10:25:02.966Z,11.00
2019-03-28T10:27:31.441Z,11.10
2019-03-28T10:29:59.937Z,11.40
2019-03-28T10:32:28.570Z,11.50
2019-03-28T10:34:57.013Z,11.60
2019-03-28T10:37:25.519Z,11.50
2019-03-28T10:39:54.035Z,11.40
2019-03-28T10:42:22.480Z,11.20
2019-03-28T10:44:50.972Z,11.00
2019-03-28T10:47:19.426Z,10.90
2019-03-28T10:49:47.871Z,10.90
2019-03-28T10:52:16.373Z,10.90
2019-03-28T10:54:44.817Z,11.00
2019-03-28T10:57:23.959Z,11.10
2019-03-28T10:59:43.492Z,11.30
2019-03-28T11:02:12.625Z,11.50
2019-03-28T11:04:41.226Z,11.60
2019-03-28T11:07:09.895Z,11.70
2019-03-28T11:09:38.333Z,11.70
2019-03-28T11:12:06.782Z,11.60
2019-03-28T11:14:35.258Z,11.40
2019-03-28T11:17:03.737Z,11.30
2019-03-28T11:19:32.187Z,11.20
2019-03-28T11:22:00.939Z,11.20
2019-03-28T11:24:29.381Z,11.20
2019-03-28T11:26:57.913Z,11.30
2019-03-28T11:29:26.487Z,11.40
2019-03-28T11:31:54.922Z,11.50
2019-03-28T11:34:23.421Z,11.50
2019-03-28T11:36:52.033Z,11.50
2019-03-28T11:39:20.948Z,11.40
2019-03-28T11:41:49.725Z,11.30
2019-03-28T11:44:18.177Z,11.20
2019-03-28T11:46:46.626Z,11.00
2019-03-28T11:49:15.102Z,11.00
2019-03-28T11:51:43.610Z,10.90
2019-03-28T11:54:12.046Z,10.90
2019-03-28T11:56:40.489Z,10.90
2019-03-28T11:59:08.974Z,10.90
2019-03-28T12:01:37.444Z,10.90
2019-03-28T12:04:05.894Z,10.80
2019-03-28T12:06:34.474Z,10.90
2019-03-28T12:09:02.930Z,10.90
2019-03-28T12:11:31.450Z,10.90
2019-03-28T12:14:00.152Z,10.90
2019-03-28T12:16:28.605Z,10.90
2019-03-28T12:18:57.051Z,10.90
2019-03-28T12:21:25.811Z,10.90
2019-03-28T12:23:54.313Z,10.90
2019-03-28T12:26:22.756Z,10.90
2019-03-28T12:28:51.254Z,11.00
2019-03-28T12:31:19.758Z,11.10
2019-03-28T12:33:48.247Z,11.30
2019-03-28T12:36:16.691Z,11.40
2019-03-28T12:38:45.174Z,11.40
2019-03-28T12:41:13.676Z,11.40
2019-03-28T12:43:42.133Z,11.50
2019-03-28T12:46:10.568Z,11.30
2019-03-28T12:48:39.069Z,11.30
2019-03-28T12:51:07.513Z,11.20
2019-03-28T12:53:36.583Z,11.20
2019-03-28T12:56:05.430Z,11.20
2019-03-28T12:58:33.879Z,11.20
2019-03-28T13:01:02.404Z,11.20
2019-03-28T13:03:44.471Z,11.10
2019-03-28T13:06:01.065Z,11.20
2019-03-28T13:08:29.526Z,11.20
2019-03-28T13:10:58.032Z,11.30
2019-03-28T13:13:26.478Z,11.30
2019-03-28T13:15:54.913Z,11.30
2019-03-28T13:18:23.420Z,11.20
2019-03-28T13:20:51.869Z,11.10
2019-03-28T13:23:20.315Z,11.10
2019-03-28T13:25:48.993Z,11.00
2019-03-28T13:28:17.446Z,10.90
2019-03-28T13:30:45.953Z,10.90
2019-03-28T13:33:14.473Z,10.90
2019-03-28T13:35:42.916Z,10.90
2019-03-28T13:38:11.364Z,10.90
2019-03-28T13:40:39.841Z,10.90
2019-03-28T13:43:08.465Z,10.90
2019-03-28T13:45:36.905Z,10.90
2019-03-28T13:48:05.390Z,10.90
2019-03-28T13:50:33.838Z,10.90
2019-03-28T13:53:02.317Z,11.00
2019-03-28T13:55:30.816Z,11.00
2019-03-28T13:57:59.611Z,11.10
2019-03-28T14:00:32.574Z,11.20
2019-03-28T14:03:01.026Z,11.40
2019-03-28T14:05:30.108Z,11.50
2019-03-28T14:07:58.555Z,11.70
2019-03-28T14:10:27.010Z,11.70
2019-03-28T14:12:55.537Z,11.70
2019-03-28T14:15:23.981Z,11.80
2019-03-28T14:17:52.429Z,11.70
2019-03-28T14:20:22.337Z,11.80
2019-03-28T14:22:51.187Z,11.70
2019-03-28T14:25:19.638Z,11.80
2019-03-28T14:27:48.147Z,11.70
2019-03-28T14:30:16.959Z,11.70
2019-03-28T14:32:53.007Z,11.80
2019-03-28T14:35:15.632Z,11.80
2019-03-28T14:37:44.077Z,11.90
2019-03-28T14:40:12.767Z,11.80
2019-03-28T14:42:41.304Z,11.90
2019-03-28T14:45:10.033Z,11.90
2019-03-28T14:47:38.549Z,11.90
2019-03-28T14:50:08.882Z,11.80
2019-03-28T14:52:36.806Z,11.80
2019-03-28T14:55:05.717Z,11.80
2019-03-28T14:57:34.331Z,11.80
2019-03-28T15:00:04.458Z,11.70
2019-03-28T15:02:32.910Z,11.70
2019-03-28T15:05:01.411Z,11.70
2019-03-28T15:07:29.850Z,11.70
2019-03-28T15:09:58.293Z,11.70
2019-03-28T15:12:26.764Z,11.70
2019-03-28T15:14:55.234Z,11.60
2019-03-28T15:17:23.781Z,11.60
2019-03-28T15:19:52.242Z,11.50
2019-03-28T15:22:20.727Z,11.50
2019-03-28T15:24:49.166Z,11.50
2019-03-28T15:27:17.643Z,11.50
2019-03-28T15:29:46.087Z,11.50
2019-03-28T15:32:14.591Z,11.40
2019-03-28T15:34:43.041Z,11.40
2019-03-28T15:37:11.480Z,11.30
2019-03-28T15:39:40.315Z,11.30
2019-03-28T15:42:08.802Z,11.40
2019-03-28T15:44:39.334Z,11.40
2019-03-28T15:47:07.481Z,11.40
2019-03-28T15:49:35.929Z,11.40
2019-03-28T15:52:05.204Z,11.40
2019-03-28T15:54:34.051Z,11.60
2019-03-28T15:57:02.591Z,11.50
2019-03-28T15:59:31.101Z,11.50
2019-03-28T16:02:00.000Z,11.60
2019-03-28T16:04:28.668Z,11.60
2019-03-28T16:06:57.172Z,11.60
2019-03-28T16:09:25.646Z,11.60
2019-03-28T16:12:02.442Z,11.50
2019-03-28T16:14:24.398Z,11.50
2019-03-28T16:16:53.121Z,11.50
2019-03-28T16:19:21.628Z,11.50
2019-03-28T16:21:50.391Z,11.40
2019-03-28T16:24:18.946Z,11.30
2019-03-28T16:26:47.393Z,11.20
2019-03-28T16:29:15.881Z,11.10
2019-03-28T16:31:44.633Z,11.00
2019-03-28T16:34:13.078Z,10.90
2019-03-28T16:36:41.530Z,10.80
2019-03-28T17:03:09.087Z,20.30
2019-03-28T17:05:37.595Z,17.80
2019-03-28T17:08:06.342Z,15.50
2019-03-28T17:10:46.188Z,14.10
2019-03-28T17:13:15.448Z,13.00
2019-03-28T17:15:44.162Z,12.20
2019-03-28T17:18:13.241Z,11.70
2019-03-28T17:20:41.965Z,11.30
2019-03-28T17:23:10.666Z,11.00
2019-03-28T17:25:39.161Z,10.80
2019-03-28T17:28:07.729Z,10.60
2019-03-28T17:30:36.169Z,10.50
2019-03-28T17:33:05.255Z,10.40
2019-03-28T17:35:34.413Z,10.30
2019-03-28T17:38:02.866Z,10.30
2019-03-28T17:40:31.392Z,10.20
2019-03-28T17:42:59.948Z,10.20
2019-03-28T17:45:28.390Z,10.20
2019-03-28T17:47:56.882Z,10.20
2019-03-28T17:50:25.329Z,10.20
2019-03-28T17:52:54.023Z,10.10
2019-03-28T17:55:22.463Z,10.10
2019-03-28T17:57:50.917Z,10.10
2019-03-28T18:00:19.682Z,10.10
2019-03-28T18:02:48.128Z,10.10
2019-03-28T18:05:16.854Z,10.10
2019-03-28T18:07:45.376Z,10.00
2019-03-28T18:10:14.257Z,10.00
2019-03-28T18:12:42.773Z,10.00
2019-03-28T18:15:11.654Z,10.00
2019-03-28T18:17:40.106Z,10.00
2019-03-28T18:20:09.426Z,10.00
2019-03-28T18:22:37.885Z,10.00
2019-03-28T18:25:07.888Z,10.00
2019-03-28T18:27:36.556Z,10.00
2019-03-28T18:30:07.139Z,9.90
2019-03-28T18:32:35.618Z,10.00
2019-03-28T18:35:08.544Z,10.00
2019-03-28T18:37:37.144Z,10.00
2019-03-28T18:40:07.423Z,9.90
2019-03-28T18:42:35.876Z,9.90
2019-03-28T18:45:06.446Z,9.90
2019-03-28T18:47:34.876Z,9.90
2019-03-28T18:50:04.260Z,9.90
2019-03-28T18:52:33.627Z,9.80
2019-03-28T18:55:02.219Z,9.80
2019-03-28T18:57:32.056Z,9.80
2019-03-28T19:00:00.621Z,9.80
2019-03-28T19:02:29.071Z,9.70
2019-03-28T19:04:58.091Z,9.70
2019-03-28T19:07:26.612Z,9.70
2019-03-28T19:09:55.051Z,9.70
2019-03-28T19:12:23.504Z,9.70
2019-03-28T19:14:52.159Z,9.70
2019-03-28T19:17:20.604Z,9.70
2019-03-28T19:19:49.101Z,9.70
2019-03-28T19:22:17.608Z,9.70
2019-03-28T19:24:46.109Z,9.70
2019-03-28T19:27:14.562Z,9.60
2019-03-28T19:29:43.077Z,9.60
2019-03-28T19:32:11.590Z,9.60
2019-03-28T19:34:40.045Z,9.60
2019-03-28T19:37:08.799Z,9.60
2019-03-28T19:39:37.528Z,9.50
2019-03-28T19:42:05.982Z,9.50
2019-03-28T19:44:34.413Z,9.50
2019-03-28T19:47:03.188Z,9.50
2019-03-28T19:49:31.641Z,9.50
2019-03-28T19:52:00.298Z,9.50
2019-03-28T19:54:28.953Z,9.50
2019-03-28T19:56:57.559Z,9.50
2019-03-28T19:59:26.218Z,9.40
2019-03-28T20:01:54.870Z,9.40
2019-03-28T20:04:23.381Z,9.40
2019-03-28T20:06:51.894Z,9.40
2019-03-28T20:09:20.344Z,9.40
2019-03-28T20:11:48.790Z,9.40
2019-03-28T20:14:17.547Z,9.30
2019-03-28T20:16:45.980Z,9.30
2019-03-28T20:19:17.656Z,9.30
2019-03-28T20:21:44.631Z,9.30
2019-03-28T20:24:13.175Z,9.30
2019-03-28T20:26:41.724Z,9.30
2019-03-28T20:29:10.246Z,9.30
2019-03-28T20:31:39.003Z,9.40
2019-03-28T20:34:10.850Z,9.40
2019-03-28T20:36:43.714Z,9.40
2019-03-28T20:39:11.737Z,9.50
2019-03-28T20:41:59.638Z,9.50
2019-03-28T20:44:28.349Z,9.50
2019-03-28T20:46:58.682Z,9.50
2019-03-28T20:49:26.962Z,9.50
2019-03-28T20:51:55.451Z,9.50
2019-03-28T20:54:23.896Z,9.50
2019-03-28T20:56:52.332Z,9.50
2019-03-28T20:59:20.958Z,9.50
2019-03-28T21:01:49.425Z,9.40
2019-03-28T21:04:30.666Z,9.40
2019-03-28T21:06:48.175Z,9.30
2019-03-28T21:09:16.621Z,9.30
2019-03-28T21:11:45.133Z,9.30
2019-03-28T21:14:13.580Z,9.20
2019-03-28T21:16:42.031Z,9.20
2019-03-28T21:19:10.526Z,9.20
2019-03-28T21:21:38.960Z,9.20
2019-03-28T21:24:07.418Z,9.20
2019-03-28T21:26:36.186Z,9.20
2019-03-28T21:29:04.697Z,9.10
2019-03-28T21:31:33.142Z,9.10
2019-03-28T21:34:01.890Z,9.10
2019-03-28T21:36:30.629Z,9.10
2019-03-28T21:39:00.075Z,9.10
2019-03-28T21:41:28.662Z,9.10
2019-03-28T21:43:57.141Z,9.10
2019-03-28T21:46:25.629Z,9.00
2019-03-28T21:48:54.126Z,9.10
2019-03-28T21:51:22.706Z,9.00
2019-03-28T21:53:51.161Z,9.00
2019-03-28T21:56:19.601Z,9.00
2019-03-28T21:58:48.262Z,9.00
2019-03-28T22:01:16.782Z,9.00
2019-03-28T22:03:45.230Z,9.00
2019-03-28T22:06:13.718Z,9.00
2019-03-28T22:08:42.152Z,9.00
2019-03-28T22:11:10.642Z,9.00
2019-03-28T22:13:39.087Z,9.00
2019-03-28T22:16:07.890Z,8.90
2019-03-28T22:18:36.526Z,8.90
2019-03-28T22:21:04.973Z,8.90
2019-03-28T22:23:33.445Z,8.90
2019-03-28T22:26:01.934Z,8.90
2019-03-28T22:28:30.520Z,8.90
2019-03-28T22:30:58.957Z,8.90
2019-03-28T22:33:27.484Z,8.90
2019-03-28T22:35:55.986Z,8.90
2019-03-28T22:38:24.428Z,8.90
2019-03-28T22:44:22.242Z,8.90
2019-03-28T22:46:50.880Z,8.90
2019-03-28T22:49:19.408Z,8.90
2019-03-28T22:51:47.911Z,8.90
2019-03-28T22:54:16.353Z,8.80
2019-03-28T22:56:44.797Z,8.80
2019-03-28T22:59:13.285Z,8.80
2019-03-28T23:01:41.721Z,8.80
2019-03-28T23:04:10.230Z,8.80
2019-03-28T23:06:38.665Z,8.80
2019-03-28T23:09:07.575Z,8.80
2019-03-28T23:11:36.096Z,8.80
2019-03-28T23:14:04.769Z,8.80
2019-03-28T23:16:33.217Z,8.80
2019-03-28T23:19:02.280Z,8.80
2019-03-28T23:21:30.726Z,8.80
2019-03-28T23:23:59.161Z,8.80
2019-03-28T23:26:27.640Z,8.80
2019-03-28T23:28:56.146Z,8.80
2019-03-28T23:31:24.662Z,8.90
2019-03-28T23:33:53.105Z,8.80
2019-03-28T23:36:21.636Z,8.80
2019-03-28T23:38:50.077Z,8.80
2019-03-28T23:41:18.648Z,8.80
2019-03-28T23:43:47.201Z,8.80
2019-03-28T23:46:15.734Z,8.80
2019-03-28T23:48:44.183Z,8.80
2019-03-28T23:51:12.679Z,8.80
2019-03-28T23:53:41.127Z,8.80
2019-03-28T23:56:10.762Z,8.80
2019-03-28T23:58:39.368Z,8.80
